Rubim, Brazil
Current Conditions -  °F | °C
As of 5:00 PM on Saturday 20 Dec 2014 (Local Time) from SBPS Reporting Station
Scattered Clouds Scattered Clouds  
Wind Chill: 84°   Ceiling: Unl
Heat Index: 90°   Visibility: 6mi
Dew Point: 72°   Wind: 18mph
Humidity: 66%   Direction: 50°NE
Pressure: 29.88"   Gusts: NA
Location:  16.37°S, 40.54°W
Report Text: SBPS 201900Z 05016KT 9999 SCT020 29/22 Q1012
Loading
Personal Weather Stations






























Interactive Weather Map New forecast layout! Learn more

10-Day Weather Forecast

Advertisements
Track Severe Weather on mobile